Time;durP1;ratioP1;P1;durP2;ratioP2;P2;SDS_P1;SDS_P2;PMS_P1;PMS_P2;Temp;Humidity;BMP_temperature;BMP_pressure;BME280_temperature;BME280_humidity;BME280_pressure;Samples;Min_cycle;Max_cycle;Signal;HPM_P1;HPM_P2
2023/04/21 00:01:31;;;;;;;28.00;21.10;;;9.10;99.90;;;;;;4966494;28;20042;-73
2023/04/21 00:03:56;;;;;;;22.25;19.25;;;9.20;99.90;;;;;;4970711;28;20049;-73
2023/04/21 00:06:22;;;;;;;23.52;18.58;;;9.10;99.90;;;;;;4969113;28;20058;-73
2023/04/21 00:08:49;;;;;;;24.65;20.23;;;9.10;99.90;;;;;;4969682;28;20039;-73
2023/04/21 00:11:14;;;;;;;22.48;18.85;;;9.20;99.90;;;;;;4967111;28;20043;-73
2023/04/21 00:13:40;;;;;;;23.10;19.17;;;9.20;99.90;;;;;;4967609;28;20379;-73
2023/04/21 00:16:06;;;;;;;31.35;19.77;;;9.20;99.90;;;;;;4969002;28;20078;-74
2023/04/21 00:18:32;;;;;;;21.17;17.02;;;9.20;99.90;;;;;;4976183;28;20066;-73
2023/04/21 00:20:58;;;;;;;25.95;17.70;;;9.20;99.90;;;;;;4970144;28;20043;-73
2023/04/21 00:23:24;;;;;;;22.95;17.98;;;9.20;99.90;;;;;;4967230;28;20043;-73
2023/04/21 00:25:51;;;;;;;23.45;17.90;;;9.20;99.90;;;;;;4970082;28;20054;-73
2023/04/21 00:28:16;;;;;;;23.70;17.33;;;9.20;99.90;;;;;;4963427;28;20145;-73
2023/04/21 00:30:42;;;;;;;21.42;16.83;;;9.20;99.90;;;;;;4966696;28;20134;-73
2023/04/21 00:33:08;;;;;;;20.42;16.30;;;9.20;99.90;;;;;;4967036;28;20348;-73
2023/04/21 00:35:33;;;;;;;22.55;17.33;;;9.20;99.90;;;;;;4968412;28;20141;-73
2023/04/21 00:37:59;;;;;;;21.42;16.50;;;9.10;99.90;;;;;;4969034;28;20177;-73
2023/04/21 00:40:26;;;;;;;21.63;17.02;;;9.10;99.90;;;;;;4970124;28;20391;-73
2023/04/21 00:42:52;;;;;;;24.38;16.85;;;9.10;99.90;;;;;;4966791;28;20070;-73
2023/04/21 00:45:17;;;;;;;23.42;16.67;;;9.10;99.90;;;;;;4969699;28;20051;-73
2023/04/21 00:47:43;;;;;;;20.38;16.35;;;9.00;99.90;;;;;;4965392;28;20503;-73
2023/04/21 00:50:10;;;;;;;22.05;16.48;;;9.10;99.90;;;;;;4968698;28;20082;-73
2023/04/21 00:52:39;;;;;;;20.77;14.88;;;9.00;99.90;;;;;;4970702;28;20487;-73
2023/04/21 00:55:06;;;;;;;22.52;15.88;;;9.00;99.90;;;;;;4965342;28;20118;-73
2023/04/21 00:57:34;;;;;;;20.95;16.52;;;9.00;99.90;;;;;;4971934;28;20529;-73
2023/04/21 01:00:01;;;;;;;19.58;14.48;;;9.00;99.90;;;;;;4966224;28;20105;-73
2023/04/21 01:02:27;;;;;;;17.00;15.20;;;9.00;99.90;;;;;;4968098;28;20227;-71
2023/04/21 01:04:53;;;;;;;22.27;15.10;;;9.00;99.90;;;;;;4969921;28;20122;-72
2023/04/21 01:07:19;;;;;;;18.67;14.82;;;8.90;99.90;;;;;;4968581;28;20125;-72
2023/04/21 01:09:44;;;;;;;19.80;14.93;;;8.90;99.90;;;;;;4970167;28;20031;-72
2023/04/21 01:12:11;;;;;;;20.80;14.00;;;8.90;99.90;;;;;;4969324;28;20588;-72
2023/04/21 01:14:38;;;;;;;17.48;14.18;;;8.90;99.90;;;;;;4972026;28;20096;-72
2023/04/21 01:17:04;;;;;;;19.20;14.75;;;8.90;99.90;;;;;;4984871;28;20035;-72
2023/04/21 01:19:34;;;;;;;18.80;13.48;;;8.90;99.90;;;;;;4968131;28;20082;-72
2023/04/21 01:22:02;;;;;;;20.23;14.57;;;8.90;99.90;;;;;;4967709;28;20039;-73
2023/04/21 01:24:42;;;;;;;17.95;14.00;;;8.90;99.90;;;;;;4971354;28;20054;-73
2023/04/21 01:27:13;;;;;;;19.48;14.18;;;8.80;99.90;;;;;;4966341;28;20063;-72
2023/04/21 01:29:40;;;;;;;21.58;13.52;;;8.90;99.90;;;;;;4965221;28;20081;-73
2023/04/21 01:32:09;;;;;;;20.98;13.68;;;8.90;99.90;;;;;;4963627;28;20047;-73
2023/04/21 01:34:35;;;;;;;17.58;13.73;;;8.90;99.90;;;;;;4962763;28;20157;-73
2023/04/21 01:37:01;;;;;;;18.00;13.18;;;8.90;99.90;;;;;;4964800;28;20042;-73
2023/04/21 01:39:27;;;;;;;19.45;13.93;;;8.80;99.90;;;;;;4968389;28;20398;-73
2023/04/21 01:41:56;;;;;;;19.88;14.15;;;8.80;99.90;;;;;;4966108;28;20457;-73
2023/04/21 01:44:23;;;;;;;18.10;13.20;;;8.80;99.90;;;;;;4965695;28;20054;-73
2023/04/21 01:46:49;;;;;;;16.05;12.57;;;8.80;99.90;;;;;;4965382;28;20411;-73
2023/04/21 01:49:15;;;;;;;16.30;12.48;;;8.70;99.90;;;;;;4969162;28;20069;-73
2023/04/21 01:51:40;;;;;;;16.85;12.63;;;8.80;99.90;;;;;;4969039;28;20077;-73
2023/04/21 01:54:06;;;;;;;17.35;13.13;;;8.70;99.90;;;;;;4954183;28;20121;-73
2023/04/21 01:56:32;;;;;;;19.58;13.90;;;8.70;99.90;;;;;;4955586;28;20039;-73
2023/04/21 01:58:57;;;;;;;17.00;12.77;;;8.70;99.90;;;;;;4969875;28;20062;-73
2023/04/21 02:01:23;;;;;;;19.05;13.10;;;8.70;99.90;;;;;;4966700;28;20049;-73
2023/04/21 02:03:49;;;;;;;17.17;12.98;;;8.70;99.90;;;;;;4968255;28;20365;-73
2023/04/21 02:06:16;;;;;;;17.83;12.50;;;8.70;99.90;;;;;;4965600;28;20047;-73
2023/04/21 02:08:42;;;;;;;18.55;13.30;;;8.70;99.90;;;;;;4955195;28;20038;-73
2023/04/21 02:11:08;;;;;;;18.27;12.32;;;8.70;99.90;;;;;;4967339;28;20034;-73
2023/04/21 02:13:33;;;;;;;18.33;13.20;;;8.70;99.90;;;;;;4965697;28;20086;-72
2023/04/21 02:15:59;;;;;;;15.13;11.57;;;8.80;99.90;;;;;;4968457;28;20088;-72
2023/04/21 02:18:25;;;;;;;17.23;12.43;;;8.70;99.90;;;;;;4964274;28;20043;-72
2023/04/21 02:20:50;;;;;;;14.30;12.48;;;8.70;99.90;;;;;;4967617;28;20469;-72
2023/04/21 02:23:16;;;;;;;17.02;12.27;;;8.80;99.90;;;;;;4959831;28;20043;-72
2023/04/21 02:25:42;;;;;;;16.30;12.43;;;8.80;99.90;;;;;;4968195;28;20514;-72
2023/04/21 02:28:07;;;;;;;16.58;12.32;;;8.70;99.90;;;;;;4967829;28;20130;-71
2023/04/21 02:30:34;;;;;;;19.40;13.30;;;8.80;99.90;;;;;;4965778;28;20054;-73
2023/04/21 02:32:59;;;;;;;14.65;11.63;;;8.70;99.90;;;;;;4961019;28;20043;-72
2023/04/21 02:35:26;;;;;;;18.13;12.20;;;8.80;99.90;;;;;;4967229;28;20153;-73
2023/04/21 02:37:51;;;;;;;18.55;12.50;;;8.80;99.90;;;;;;4972242;28;20833;-74
2023/04/21 02:40:17;;;;;;;18.88;12.85;;;8.80;99.90;;;;;;4970179;28;20086;-73
2023/04/21 02:42:43;;;;;;;15.80;11.80;;;8.80;99.90;;;;;;4965257;28;20133;-73
2023/04/21 02:45:09;;;;;;;16.13;11.50;;;8.70;99.90;;;;;;4968804;28;20030;-73
2023/04/21 02:47:35;;;;;;;16.50;12.40;;;8.70;99.90;;;;;;4953626;28;20070;-74
2023/04/21 02:50:01;;;;;;;19.63;12.98;;;8.70;99.90;;;;;;4968054;28;20447;-74
2023/04/21 02:52:26;;;;;;;15.85;12.88;;;8.70;99.90;;;;;;4969500;28;20050;-73
2023/04/21 02:54:52;;;;;;;20.08;12.52;;;8.70;99.90;;;;;;4965283;28;20060;-73
2023/04/21 02:57:18;;;;;;;14.05;11.63;;;8.70;99.90;;;;;;4967554;28;20057;-73
2023/04/21 02:59:43;;;;;;;16.25;11.50;;;8.70;99.90;;;;;;4958772;28;20046;-73
2023/04/21 03:02:09;;;;;;;15.65;11.63;;;8.70;99.90;;;;;;4968273;28;20458;-73
2023/04/21 03:04:35;;;;;;;16.45;11.55;;;8.70;99.90;;;;;;4968896;28;20121;-73
2023/04/21 03:07:00;;;;;;;15.20;10.27;;;8.70;99.90;;;;;;4968641;28;20383;-72
2023/04/21 03:09:26;;;;;;;15.35;11.25;;;8.70;99.90;;;;;;4962925;28;20039;-73
2023/04/21 03:11:52;;;;;;;19.38;11.90;;;8.70;99.90;;;;;;4966688;28;20035;-72
2023/04/21 03:14:18;;;;;;;21.08;12.60;;;8.70;99.90;;;;;;4964174;28;20039;-72
2023/04/21 03:16:43;;;;;;;16.35;10.82;;;8.80;99.90;;;;;;4969597;28;20058;-72
2023/04/21 03:19:09;;;;;;;21.52;12.43;;;8.70;99.90;;;;;;4966387;28;20054;-72
2023/04/21 03:21:38;;;;;;;17.83;12.05;;;8.70;99.90;;;;;;4968301;28;20121;-72
2023/04/21 03:24:05;;;;;;;17.05;11.50;;;8.70;99.90;;;;;;4962167;28;20051;-72
2023/04/21 03:26:31;;;;;;;15.80;11.90;;;8.70;99.90;;;;;;4966756;28;20085;-73
2023/04/21 03:28:57;;;;;;;17.63;11.38;;;8.70;99.90;;;;;;4964987;28;20043;-73
2023/04/21 03:31:22;;;;;;;18.00;11.70;;;8.70;99.90;;;;;;4972652;28;20066;-73
2023/04/21 03:33:48;;;;;;;15.70;11.63;;;8.70;99.90;;;;;;4971808;28;20170;-72
2023/04/21 03:36:14;;;;;;;18.88;12.00;;;8.70;99.90;;;;;;4969333;28;20054;-72
2023/04/21 03:38:39;;;;;;;16.25;11.77;;;8.80;99.90;;;;;;4973385;28;20042;-72
2023/04/21 03:41:05;;;;;;;17.13;11.93;;;8.80;99.90;;;;;;4965012;28;20047;-72
2023/04/21 03:43:31;;;;;;;17.50;11.30;;;8.90;99.90;;;;;;4987802;28;20431;-73
2023/04/21 03:45:56;;;;;;;14.80;11.48;;;8.80;99.90;;;;;;4966713;28;20093;-72
2023/04/21 03:48:22;;;;;;;16.45;11.35;;;8.90;99.90;;;;;;4973792;28;20050;-73
2023/04/21 03:50:50;;;;;;;15.15;11.10;;;8.90;99.90;;;;;;4963376;28;20074;-72
2023/04/21 03:53:18;;;;;;;17.88;11.38;;;8.90;99.90;;;;;;4971222;28;20395;-72
2023/04/21 03:55:47;;;;;;;15.43;11.00;;;8.90;99.90;;;;;;4967843;28;20053;-72
2023/04/21 03:58:18;;;;;;;16.23;11.23;;;9.00;99.90;;;;;;4983611;28;20051;-72
2023/04/21 04:00:51;;;;;;;15.63;11.15;;;9.00;99.90;;;;;;4968837;28;20042;-72
2023/04/21 04:03:24;;;;;;;16.42;10.48;;;8.90;99.90;;;;;;4969045;28;20034;-72
2023/04/21 04:05:57;;;;;;;16.45;11.07;;;8.90;99.90;;;;;;4965365;28;20047;-72
2023/04/21 04:08:31;;;;;;;14.60;11.68;;;9.00;99.90;;;;;;4961698;28;20400;-72
2023/04/21 04:11:03;;;;;;;18.23;11.13;;;8.90;99.90;;;;;;4981993;28;20364;-71
2023/04/21 04:13:32;;;;;;;15.52;10.68;;;8.90;99.90;;;;;;4970473;28;20046;-72
2023/04/21 04:15:58;;;;;;;16.48;12.05;;;8.90;99.90;;;;;;4967386;28;20053;-72
2023/04/21 04:18:24;;;;;;;16.27;11.05;;;8.90;99.90;;;;;;4967638;28;20046;-73
2023/04/21 04:20:50;;;;;;;18.38;11.95;;;8.90;99.90;;;;;;4965850;28;20070;-72
2023/04/21 04:23:15;;;;;;;15.73;10.65;;;8.90;99.90;;;;;;4970713;28;20038;-73
2023/04/21 04:25:41;;;;;;;15.73;11.43;;;8.90;99.90;;;;;;4964212;28;20042;-73
2023/04/21 04:28:08;;;;;;;16.40;12.15;;;8.90;99.90;;;;;;4968297;28;20118;-74
2023/04/21 04:30:34;;;;;;;18.67;12.13;;;8.80;99.90;;;;;;4986731;28;20057;-74
2023/04/21 04:33:00;;;;;;;17.67;11.45;;;8.80;99.90;;;;;;4966734;28;20049;-73
2023/04/21 04:35:26;;;;;;;17.52;11.57;;;8.70;99.90;;;;;;4973252;28;20054;-73
2023/04/21 04:37:53;;;;;;;17.15;11.48;;;8.70;99.90;;;;;;4963631;28;20050;-74
2023/04/21 04:40:19;;;;;;;18.35;12.10;;;8.70;99.90;;;;;;4986449;28;20443;-74
2023/04/21 04:42:47;;;;;;;22.05;12.63;;;8.60;99.90;;;;;;4951823;28;20046;-73
2023/04/21 04:45:15;;;;;;;16.70;12.07;;;8.60;99.90;;;;;;4983648;28;20443;-73
2023/04/21 04:47:41;;;;;;;14.57;12.02;;;8.60;99.90;;;;;;4972204;28;20049;-74
2023/04/21 04:50:07;;;;;;;20.23;11.80;;;8.50;99.90;;;;;;4974811;28;20402;-73
2023/04/21 04:52:33;;;;;;;17.23;12.15;;;8.50;99.90;;;;;;4975546;28;20077;-73
2023/04/21 04:54:59;;;;;;;16.92;11.82;;;8.50;99.90;;;;;;4988029;28;20493;-71
2023/04/21 04:57:24;;;;;;;17.55;11.32;;;8.50;99.90;;;;;;4975327;28;20052;-73
2023/04/21 04:59:54;;;;;;;15.02;12.00;;;8.50;99.90;;;;;;4970512;28;20044;-74
2023/04/21 05:02:22;;;;;;;17.50;12.85;;;8.50;99.90;;;;;;4982909;28;20120;-73
2023/04/21 05:04:51;;;;;;;18.02;12.30;;;8.50;99.90;;;;;;4974415;28;20454;-74
2023/04/21 05:07:16;;;;;;;16.50;11.77;;;8.50;99.90;;;;;;4974616;28;20042;-73
2023/04/21 05:09:42;;;;;;;16.45;12.25;;;8.60;99.90;;;;;;4973380;28;20038;-73
2023/04/21 05:12:08;;;;;;;19.27;12.45;;;8.60;99.90;;;;;;4978500;28;20034;-73
2023/04/21 05:14:33;;;;;;;18.85;12.18;;;8.60;99.90;;;;;;4967209;28;20034;-73
2023/04/21 05:16:59;;;;;;;14.98;11.73;;;8.70;99.90;;;;;;4971206;28;20038;-73
2023/04/21 05:19:25;;;;;;;15.80;12.02;;;8.70;99.90;;;;;;4971900;28;20498;-72
2023/04/21 05:21:50;;;;;;;19.00;11.77;;;8.70;99.90;;;;;;4990405;28;20057;-73
2023/04/21 05:24:22;;;;;;;18.00;11.85;;;8.70;99.90;;;;;;4970391;28;20132;-73
2023/04/21 05:26:48;;;;;;;19.92;11.68;;;8.70;99.90;;;;;;4989339;28;20526;-73
2023/04/21 05:29:13;;;;;;;14.60;11.57;;;8.80;99.90;;;;;;4955365;28;20036;-73
2023/04/21 05:31:39;;;;;;;15.25;11.98;;;8.80;99.90;;;;;;4971878;28;20452;-73
2023/04/21 05:34:05;;;;;;;18.58;12.18;;;8.80;99.90;;;;;;4975927;28;20043;-75
2023/04/21 05:36:31;;;;;;;16.00;11.25;;;8.90;99.90;;;;;;4971351;28;20042;-74
2023/04/21 05:38:57;;;;;;;18.98;12.18;;;9.00;99.90;;;;;;4993902;28;20287;-74
2023/04/21 05:41:22;;;;;;;20.10;11.23;;;9.20;99.90;;;;;;4974207;28;20594;-74
2023/04/21 05:43:48;;;;;;;23.52;17.30;;;9.30;99.90;;;;;;4966977;28;20161;-74
2023/04/21 05:46:14;;;;;;;14.18;11.75;;;9.50;99.90;;;;;;4976365;28;20173;-74
2023/04/21 05:48:40;;;;;;;19.60;11.77;;;9.70;99.90;;;;;;4974468;28;20109;-72
2023/04/21 05:51:10;;;;;;;15.52;11.90;;;9.90;99.90;;;;;;4993739;28;20038;-72
2023/04/21 05:53:37;;;;;;;17.30;11.65;;;10.10;99.90;;;;;;4976077;28;20035;-73
2023/04/21 05:56:03;;;;;;;16.20;11.07;;;10.10;99.90;;;;;;4970259;28;20046;-73
2023/04/21 05:58:29;;;;;;;14.82;10.20;;;10.00;99.90;;;;;;4970131;28;20045;-73
2023/04/21 06:00:55;;;;;;;16.83;11.85;;;9.90;99.90;;;;;;4965989;28;20038;-74
2023/04/21 06:03:20;;;;;;;15.18;10.52;;;9.80;99.90;;;;;;4972631;28;20062;-74
2023/04/21 06:05:46;;;;;;;15.82;11.05;;;9.80;99.90;;;;;;4971341;28;20049;-74
2023/04/21 06:08:12;;;;;;;13.35;10.52;;;9.80;99.90;;;;;;4976338;28;20035;-73
2023/04/21 06:10:38;;;;;;;14.55;10.40;;;9.80;99.90;;;;;;4971931;28;20047;-73
2023/04/21 06:13:03;;;;;;;13.57;10.38;;;9.80;99.90;;;;;;4971952;28;20038;-74
2023/04/21 06:15:29;;;;;;;14.88;9.88;;;9.80;99.90;;;;;;4973986;28;20125;-73
2023/04/21 06:17:55;;;;;;;15.80;10.27;;;9.80;99.90;;;;;;4975457;28;20652;-73
2023/04/21 06:20:20;;;;;;;13.95;9.32;;;9.90;99.90;;;;;;4967594;28;20045;-74
2023/04/21 06:22:46;;;;;;;13.80;10.65;;;10.00;99.90;;;;;;4983510;28;20037;-74
2023/04/21 06:25:12;;;;;;;15.50;10.98;;;10.00;99.90;;;;;;4970037;28;20034;-73
2023/04/21 06:27:37;;;;;;;12.90;10.20;;;10.10;99.90;;;;;;4971936;28;20069;-73
2023/04/21 06:30:03;;;;;;;17.65;10.50;;;10.20;99.90;;;;;;4973827;28;20143;-73
2023/04/21 06:32:29;;;;;;;14.73;10.15;;;10.20;99.90;;;;;;4969548;28;20057;-74
2023/04/21 06:34:55;;;;;;;16.58;9.98;;;10.20;99.90;;;;;;4970455;28;20039;-74
2023/04/21 06:37:21;;;;;;;13.00;9.43;;;10.30;99.90;;;;;;4979978;28;20093;-73
2023/04/21 06:39:46;;;;;;;13.65;10.07;;;10.40;99.90;;;;;;4967269;28;20034;-74
2023/04/21 06:42:12;;;;;;;12.98;9.73;;;10.50;99.90;;;;;;4969783;28;20204;-74
2023/04/21 06:44:38;;;;;;;12.18;9.48;;;10.60;99.90;;;;;;4970304;28;20057;-74
2023/04/21 06:47:04;;;;;;;13.45;8.98;;;10.80;99.90;;;;;;4973182;28;20042;-73
2023/04/21 06:49:29;;;;;;;13.70;8.80;;;11.00;99.90;;;;;;4969004;28;20039;-73
2023/04/21 06:51:55;;;;;;;11.77;8.73;;;11.10;99.90;;;;;;4973005;28;20038;-74
2023/04/21 06:54:21;;;;;;;11.07;8.77;;;11.10;99.90;;;;;;4970130;28;20035;-74
2023/04/21 06:56:47;;;;;;;13.90;9.20;;;11.10;99.90;;;;;;4963091;28;20105;-74
2023/04/21 06:59:12;;;;;;;12.95;9.15;;;11.10;99.90;;;;;;4986358;28;20427;-74
2023/04/21 07:01:38;;;;;;;13.60;8.80;;;11.10;99.90;;;;;;4965087;28;20517;-73
2023/04/21 07:04:04;;;;;;;12.68;8.82;;;11.10;99.90;;;;;;4984075;28;20054;-74
2023/04/21 07:06:30;;;;;;;13.18;9.02;;;11.10;99.90;;;;;;4969420;28;20126;-75
2023/04/21 07:08:56;;;;;;;12.07;8.65;;;11.20;99.90;;;;;;4985171;28;20055;-74
2023/04/21 07:11:22;;;;;;;16.73;10.18;;;11.20;99.90;;;;;;4985538;28;20066;-74
2023/04/21 07:13:48;;;;;;;11.30;8.77;;;11.20;99.90;;;;;;4967123;28;20044;-75
2023/04/21 07:16:14;;;;;;;14.82;8.60;;;11.30;99.90;;;;;;4973697;28;20053;-74
2023/04/21 07:18:40;;;;;;;13.30;8.60;;;11.40;99.90;;;;;;4966236;28;20342;-74
2023/04/21 07:21:06;;;;;;;13.50;9.00;;;11.50;99.90;;;;;;4960491;28;20081;-74
2023/04/21 07:23:32;;;;;;;14.60;8.35;;;11.60;99.90;;;;;;4966095;28;20108;-74
2023/04/21 07:25:58;;;;;;;14.32;9.20;;;11.60;99.90;;;;;;4970189;28;20042;-75
2023/04/21 07:28:24;;;;;;;11.32;7.88;;;11.60;99.90;;;;;;4966093;28;20042;-73
2023/04/21 07:30:50;;;;;;;10.85;7.88;;;11.60;99.90;;;;;;4971365;28;20555;-74
2023/04/21 07:33:16;;;;;;;13.07;8.77;;;11.70;99.90;;;;;;4969692;28;20198;-71
2023/04/21 07:35:41;;;;;;;11.63;8.27;;;11.70;99.90;;;;;;4966062;28;20081;-71
2023/04/21 07:38:07;;;;;;;13.98;8.57;;;11.70;99.90;;;;;;4963930;28;20047;-71
2023/04/21 07:40:33;;;;;;;14.00;8.88;;;11.80;99.90;;;;;;4966341;28;20069;-71
2023/04/21 07:42:59;;;;;;;16.92;9.73;;;11.80;99.90;;;;;;4970873;28;20046;-71
2023/04/21 07:45:25;;;;;;;12.38;8.45;;;11.90;99.90;;;;;;4972457;28;20129;-71
2023/04/21 07:47:51;;;;;;;12.75;8.40;;;11.90;99.90;;;;;;4963639;28;20046;-71
2023/04/21 07:50:16;;;;;;;12.70;8.57;;;12.00;99.90;;;;;;4986990;28;20046;-71
2023/04/21 07:52:42;;;;;;;12.15;9.07;;;12.10;99.90;;;;;;4965465;28;20108;-71
2023/04/21 07:55:08;;;;;;;12.60;8.15;;;12.20;99.90;;;;;;4950160;28;20057;-71
2023/04/21 07:57:37;;;;;;;11.80;7.97;;;12.30;99.90;;;;;;4967259;28;20407;-71
2023/04/21 08:00:05;;;;;;;11.65;8.05;;;12.50;99.90;;;;;;4978914;28;20066;-71
2023/04/21 08:02:30;;;;;;;12.45;7.82;;;12.70;99.90;;;;;;4966750;28;20053;-72
2023/04/21 08:04:56;;;;;;;13.18;8.52;;;12.80;99.90;;;;;;4962219;28;20034;-71
2023/04/21 08:07:22;;;;;;;12.52;8.60;;;12.80;99.90;;;;;;4966976;28;20207;-71
2023/04/21 08:09:48;;;;;;;14.90;8.57;;;12.90;99.90;;;;;;4969225;28;20042;-70
2023/04/21 08:12:13;;;;;;;14.15;8.77;;;13.00;99.90;;;;;;4966091;28;20104;-70
2023/04/21 08:14:40;;;;;;;13.63;9.25;;;13.00;99.90;;;;;;4959946;28;20034;-72
2023/04/21 08:17:05;;;;;;;13.32;8.18;;;12.90;99.90;;;;;;4976823;28;20050;-71
2023/04/21 08:19:31;;;;;;;14.90;8.82;;;13.00;99.90;;;;;;4964735;28;20383;-70
2023/04/21 08:21:57;;;;;;;16.38;8.90;;;13.00;99.90;;;;;;4984206;28;20034;-71
2023/04/21 08:24:23;;;;;;;12.77;8.50;;;13.00;99.90;;;;;;4966097;28;20576;-71
2023/04/21 08:26:49;;;;;;;15.65;8.60;;;13.00;99.90;;;;;;4985593;28;20073;-71
2023/04/21 08:29:15;;;;;;;12.02;8.93;;;13.10;99.90;;;;;;4972869;28;20112;-71
2023/04/21 08:31:41;;;;;;;12.02;8.30;;;13.20;99.90;;;;;;4969418;28;20054;-71
2023/04/21 08:34:07;;;;;;;12.88;8.15;;;13.20;99.90;;;;;;4967895;28;20062;-71
2023/04/21 08:36:33;;;;;;;11.10;8.18;;;13.40;99.90;;;;;;4976606;28;20038;-71
2023/04/21 08:38:59;;;;;;;13.68;9.15;;;13.50;99.90;;;;;;4970515;28;20046;-71
2023/04/21 08:41:26;;;;;;;12.40;8.40;;;13.70;99.90;;;;;;4968666;28;20066;-71
2023/04/21 08:43:51;;;;;;;13.88;8.85;;;13.80;99.90;;;;;;4968661;28;20494;-71
2023/04/21 08:46:18;;;;;;;12.52;8.55;;;13.80;99.90;;;;;;4989890;28;20070;-71
2023/04/21 08:48:45;;;;;;;12.32;8.38;;;13.90;99.90;;;;;;4975122;28;20548;-70
2023/04/21 08:51:16;;;;;;;12.70;9.18;;;13.90;99.90;;;;;;4986793;28;20050;-71
2023/04/21 08:53:43;;;;;;;12.52;8.00;;;14.00;99.90;;;;;;4958508;28;20039;-74
2023/04/21 08:56:09;;;;;;;12.93;8.38;;;14.20;99.90;;;;;;4972450;28;20041;-74
2023/04/21 08:58:37;;;;;;;15.10;8.45;;;14.30;99.90;;;;;;4993587;28;20483;-74
2023/04/21 09:01:03;;;;;;;15.07;8.48;;;14.30;99.90;;;;;;4988036;28;20043;-74
2023/04/21 09:03:30;;;;;;;12.40;8.43;;;14.40;99.90;;;;;;4975199;28;20046;-74
2023/04/21 09:06:00;;;;;;;13.98;8.20;;;14.60;99.90;;;;;;4970806;28;20467;-74
2023/04/21 09:08:28;;;;;;;13.07;8.48;;;14.70;99.90;;;;;;4969164;28;20051;-74
2023/04/21 09:10:54;;;;;;;10.13;8.10;;;14.90;99.90;;;;;;4971940;28;20050;-75
2023/04/21 09:13:20;;;;;;;15.70;8.20;;;15.30;99.90;;;;;;4970722;28;20118;-74
2023/04/21 09:15:52;;;;;;;14.23;8.55;;;15.60;99.90;;;;;;4976337;28;20042;-74
2023/04/21 09:18:24;;;;;;;14.95;8.52;;;15.60;99.90;;;;;;4968799;28;20042;-74
2023/04/21 09:21:03;;;;;;;12.55;8.85;;;15.50;99.90;;;;;;4973404;28;20051;-74
2023/04/21 09:23:29;;;;;;;15.00;8.57;;;15.50;99.90;;;;;;4970955;28;20187;-73
2023/04/21 09:25:55;;;;;;;14.73;8.80;;;15.50;99.90;;;;;;4972353;28;20186;-74
2023/04/21 09:28:21;;;;;;;12.35;8.32;;;15.40;99.90;;;;;;4952791;28;20035;-75
2023/04/21 09:30:53;;;;;;;11.95;8.63;;;15.40;99.90;;;;;;4964985;28;20090;-74
2023/04/21 09:33:19;;;;;;;12.63;8.20;;;15.50;99.90;;;;;;4963361;28;20610;-75
2023/04/21 09:35:46;;;;;;;11.05;8.65;;;15.70;99.90;;;;;;4954442;28;20118;-75
2023/04/21 09:38:12;;;;;;;11.75;8.77;;;15.90;99.90;;;;;;4948593;28;20065;-75
2023/04/21 09:40:39;;;;;;;13.32;9.10;;;16.10;99.90;;;;;;4967828;28;20043;-75
2023/04/21 09:43:05;;;;;;;12.50;8.45;;;16.30;99.90;;;;;;4964341;28;20050;-74
2023/04/21 09:45:32;;;;;;;12.25;8.57;;;16.40;99.90;;;;;;4984761;28;20049;-75
2023/04/21 09:48:00;;;;;;;14.80;9.10;;;16.40;99.90;;;;;;4966567;28;20055;-74
2023/04/21 09:50:28;;;;;;;12.63;8.32;;;16.50;99.90;;;;;;4966462;28;20066;-76
2023/04/21 09:52:55;;;;;;;13.35;8.57;;;16.80;99.90;;;;;;4969235;28;20051;-74
2023/04/21 09:55:29;;;;;;;14.63;9.45;;;17.00;99.90;;;;;;4969353;28;20039;-76
2023/04/21 09:57:58;;;;;;;13.65;8.40;;;17.00;99.90;;;;;;4964471;28;20049;-76
2023/04/21 10:00:30;;;;;;;15.02;9.38;;;17.20;99.90;;;;;;4965437;28;20117;-75
2023/04/21 10:02:59;;;;;;;13.43;8.35;;;17.40;99.90;;;;;;4968232;28;20051;-78
2023/04/21 10:05:25;;;;;;;16.10;9.18;;;18.00;99.90;;;;;;4966969;28;20066;-76
2023/04/21 10:07:51;;;;;;;12.43;8.57;;;18.50;99.90;;;;;;4965382;28;20046;-76
2023/04/21 10:10:23;;;;;;;13.73;8.77;;;18.90;99.90;;;;;;4954830;28;20058;-77
2023/04/21 10:12:50;;;;;;;13.93;9.02;;;19.30;99.90;;;;;;4962821;28;20045;-76
2023/04/21 10:15:38;;;;;;;13.40;9.55;;;19.60;99.90;;;;;;4965273;28;20054;-76
2023/04/21 10:18:20;;;;;;;11.25;8.63;;;19.70;99.90;;;;;;4970182;28;20646;-76
2023/04/21 10:21:20;;;;;;;10.10;7.82;;;19.60;99.90;;;;;;4962389;28;20109;-75
2023/04/21 10:23:52;;;;;;;11.38;8.25;;;19.60;99.60;;;;;;4952882;28;20101;-76
2023/04/21 10:26:24;;;;;;;11.02;8.45;;;19.50;99.90;;;;;;4969646;28;20158;-76
2023/04/21 10:28:53;;;;;;;11.43;8.27;;;19.40;99.90;;;;;;4957363;28;20047;-76
2023/04/21 10:31:33;;;;;;;12.80;8.27;;;19.50;99.90;;;;;;4966057;28;20399;-76
2023/04/21 10:34:06;;;;;;;10.52;8.18;;;20.00;99.10;;;;;;4975340;28;20035;-78
2023/04/21 10:36:42;;;;;;;9.55;8.38;;;20.20;98.60;;;;;;4955092;28;20544;-77
2023/04/21 10:39:11;;;;;;;9.93;8.93;;;20.40;99.00;;;;;;4967423;28;20062;-76
2023/04/21 10:41:36;;;;;;;14.77;8.52;;;20.10;97.30;;;;;;4983386;28;20035;-74
2023/04/21 10:44:08;;;;;;;12.48;8.70;;;19.60;96.60;;;;;;4964937;28;20116;-75
2023/04/21 10:46:38;;;;;;;14.40;9.02;;;19.10;97.70;;;;;;4960624;28;20117;-76
2023/04/21 10:49:11;;;;;;;9.93;8.88;;;18.80;98.30;;;;;;4967342;28;20466;-75
2023/04/21 10:51:56;;;;;;;10.25;8.73;;;18.60;98.70;;;;;;4967892;28;20054;-75
2023/04/21 10:54:22;;;;;;;12.63;8.95;;;18.40;98.90;;;;;;4968083;28;20554;-76
2023/04/21 10:56:54;;;;;;;11.93;9.07;;;18.30;98.60;;;;;;4963207;28;20034;-76
2023/04/21 10:59:20;;;;;;;12.68;9.05;;;18.10;99.40;;;;;;4964020;28;20041;-74
2023/04/21 11:01:46;;;;;;;16.77;9.07;;;18.00;99.80;;;;;;4965277;28;20126;-74
2023/04/21 11:04:17;;;;;;;13.05;9.85;;;17.90;99.70;;;;;;4964615;28;20523;-75
2023/04/21 11:07:03;;;;;;;15.48;9.68;;;17.90;99.90;;;;;;4962512;28;20039;-74
2023/04/21 11:09:32;;;;;;;14.05;10.85;;;17.90;99.90;;;;;;4953328;28;20466;-74
2023/04/21 11:12:06;;;;;;;15.07;8.93;;;17.80;99.90;;;;;;4964795;28;20102;-74
2023/04/21 11:14:32;;;;;;;11.65;8.35;;;17.90;99.90;;;;;;4960182;28;20039;-75
2023/04/21 11:16:58;;;;;;;14.07;9.43;;;18.10;99.90;;;;;;4957944;28;20045;-75
2023/04/21 11:19:24;;;;;;;13.57;9.00;;;18.20;99.90;;;;;;4979163;28;20453;-76
2023/04/21 11:21:53;;;;;;;11.45;8.85;;;18.50;99.90;;;;;;4962972;28;20502;-75
2023/04/21 11:24:20;;;;;;;12.18;8.23;;;18.80;99.90;;;;;;4960274;28;20054;-75
2023/04/21 11:26:46;;;;;;;12.27;8.18;;;19.10;99.90;;;;;;4961702;28;20177;-74
2023/04/21 11:29:13;;;;;;;13.07;8.40;;;19.70;99.60;;;;;;4963136;28;20089;-75
2023/04/21 11:31:43;;;;;;;11.60;7.85;;;20.30;99.10;;;;;;4967367;28;20052;-76
2023/04/21 11:34:09;;;;;;;14.32;8.25;;;20.70;96.80;;;;;;4962667;28;20095;-75
2023/04/21 11:36:39;;;;;;;11.55;8.18;;;20.60;95.90;;;;;;4961434;28;20062;-76
2023/04/21 11:39:10;;;;;;;14.27;7.40;;;20.70;95.90;;;;;;4967697;28;20117;-75
2023/04/21 11:41:40;;;;;;;11.65;7.28;;;20.80;96.20;;;;;;4967215;28;20042;-75
2023/04/21 11:44:07;;;;;;;10.70;6.88;;;21.20;95.10;;;;;;4965256;28;20094;-75
2023/04/21 11:46:33;;;;;;;12.90;6.47;;;21.60;94.50;;;;;;4962475;28;20149;-74
2023/04/21 11:49:03;;;;;;;11.05;6.82;;;22.00;92.60;;;;;;4965309;28;20550;-75
2023/04/21 11:51:35;;;;;;;12.10;6.65;;;21.80;90.30;;;;;;4964574;28;20054;-74
2023/04/21 11:54:03;;;;;;;10.18;6.10;;;21.40;90.10;;;;;;4968810;28;20680;-74
2023/04/21 11:56:33;;;;;;;9.80;6.32;;;20.70;90.90;;;;;;4970787;28;20396;-77
2023/04/21 11:58:59;;;;;;;11.07;6.22;;;20.50;90.00;;;;;;4960068;28;20038;-75
2023/04/21 12:01:25;;;;;;;9.65;6.85;;;20.30;91.20;;;;;;4960393;28;20046;-76
2023/04/21 12:03:53;;;;;;;12.02;6.10;;;20.20;91.10;;;;;;4965420;28;20145;-74
2023/04/21 12:06:27;;;;;;;10.07;5.53;;;20.00;90.10;;;;;;4958217;28;20085;-74
2023/04/21 12:09:00;;;;;;;10.32;5.90;;;20.20;91.40;;;;;;4949334;28;20050;-74
2023/04/21 12:11:30;;;;;;;11.05;5.65;;;20.30;90.40;;;;;;4960370;28;20049;-75
2023/04/21 12:13:57;;;;;;;9.20;5.78;;;20.20;90.00;;;;;;4963466;28;20474;-75
2023/04/21 12:16:27;;;;;;;9.73;5.60;;;20.00;90.20;;;;;;4960353;28;20129;-76
2023/04/21 12:18:54;;;;;;;11.68;5.72;;;19.90;89.60;;;;;;4962796;28;20035;-76
2023/04/21 12:21:21;;;;;;;9.35;6.05;;;20.00;90.70;;;;;;4964096;28;20051;-75
2023/04/21 12:23:46;;;;;;;11.35;6.68;;;20.40;90.40;;;;;;4967087;28;20078;-75
2023/04/21 12:26:12;;;;;;;7.13;5.75;;;20.60;90.40;;;;;;4960557;28;20356;-75
2023/04/21 12:28:38;;;;;;;10.40;6.53;;;20.50;89.20;;;;;;4963932;28;20047;-75
2023/04/21 12:31:05;;;;;;;12.55;5.63;;;20.30;89.40;;;;;;4962397;28;20142;-76
2023/04/21 12:33:30;;;;;;;12.68;6.75;;;20.00;90.50;;;;;;4953194;28;20106;-76
2023/04/21 12:35:56;;;;;;;8.95;6.47;;;19.90;90.70;;;;;;4966872;28;20034;-76